sensor_id;sensor_type;location;lat;lon;timestamp;temperature;humidity
31084;DHT22;36333;51.382;0.016;2022-08-03T00:02:18;17.90;99.90
31084;DHT22;36333;51.382;0.016;2022-08-03T00:04:45;17.80;99.90
31084;DHT22;36333;51.382;0.016;2022-08-03T00:07:13;17.80;99.90
31084;DHT22;36333;51.382;0.016;2022-08-03T00:09:41;17.80;99.90
31084;DHT22;36333;51.382;0.016;2022-08-03T00:12:09;17.70;99.90
31084;DHT22;36333;51.382;0.016;2022-08-03T00:14:36;17.70;99.90
31084;DHT22;36333;51.382;0.016;2022-08-03T00:17:04;17.70;99.90
31084;DHT22;36333;51.382;0.016;2022-08-03T00:19:31;17.60;99.90
31084;DHT22;36333;51.382;0.016;2022-08-03T00:21:59;17.60;99.90
31084;DHT22;36333;51.382;0.016;2022-08-03T00:24:27;17.60;99.90
31084;DHT22;36333;51.382;0.016;2022-08-03T00:26:54;17.50;99.90
31084;DHT22;36333;51.382;0.016;2022-08-03T00:29:22;17.50;99.90
31084;DHT22;36333;51.382;0.016;2022-08-03T00:31:50;17.40;99.90
31084;DHT22;36333;51.382;0.016;2022-08-03T00:34:27;17.40;99.90
31084;DHT22;36333;51.382;0.016;2022-08-03T00:37:14;17.40;99.90
31084;DHT22;36333;51.382;0.016;2022-08-03T00:39:42;17.40;99.90
31084;DHT22;36333;51.382;0.016;2022-08-03T00:42:12;17.30;99.90
31084;DHT22;36333;51.382;0.016;2022-08-03T00:44:42;17.30;99.90
31084;DHT22;36333;51.382;0.016;2022-08-03T00:47:10;17.30;99.90
31084;DHT22;36333;51.382;0.016;2022-08-03T00:49:38;17.20;99.90
31084;DHT22;36333;51.382;0.016;2022-08-03T00:52:08;17.30;99.90
31084;DHT22;36333;51.382;0.016;2022-08-03T00:54:37;17.20;99.90
31084;DHT22;36333;51.382;0.016;2022-08-03T00:57:05;17.20;99.90
31084;DHT22;36333;51.382;0.016;2022-08-03T00:59:32;17.30;99.90
31084;DHT22;36333;51.382;0.016;2022-08-03T01:02:00;17.30;99.90
31084;DHT22;36333;51.382;0.016;2022-08-03T01:04:28;17.30;99.90
31084;DHT22;36333;51.382;0.016;2022-08-03T01:10:32;17.40;99.90
31084;DHT22;36333;51.382;0.016;2022-08-03T01:16:26;17.50;99.90
31084;DHT22;36333;51.382;0.016;2022-08-03T01:25:09;17.60;99.90
31084;DHT22;36333;51.382;0.016;2022-08-03T01:30:32;17.70;99.90
31084;DHT22;36333;51.382;0.016;2022-08-03T01:33:03;17.70;99.90
31084;DHT22;36333;51.382;0.016;2022-08-03T01:35:54;17.70;99.90
31084;DHT22;36333;51.382;0.016;2022-08-03T01:38:28;17.70;99.90
31084;DHT22;36333;51.382;0.016;2022-08-03T01:41:04;17.70;99.90
31084;DHT22;36333;51.382;0.016;2022-08-03T01:43:34;17.70;99.90
31084;DHT22;36333;51.382;0.016;2022-08-03T01:46:24;17.70;99.90
31084;DHT22;36333;51.382;0.016;2022-08-03T01:48:52;17.80;99.90
31084;DHT22;36333;51.382;0.016;2022-08-03T01:51:22;17.70;99.90
31084;DHT22;36333;51.382;0.016;2022-08-03T01:54:11;17.70;99.90
31084;DHT22;36333;51.382;0.016;2022-08-03T01:56:40;17.70;99.90
31084;DHT22;36333;51.382;0.016;2022-08-03T01:59:09;17.70;99.90
31084;DHT22;36333;51.382;0.016;2022-08-03T02:01:40;17.70;99.90
31084;DHT22;36333;51.382;0.016;2022-08-03T02:04:28;17.60;99.90
31084;DHT22;36333;51.382;0.016;2022-08-03T02:06:57;17.60;99.90
31084;DHT22;36333;51.382;0.016;2022-08-03T02:09:30;16.70;99.90
31084;DHT22;36333;51.382;0.016;2022-08-03T02:12:00;17.60;99.90
31084;DHT22;36333;51.382;0.016;2022-08-03T02:14:30;17.60;99.90
31084;DHT22;36333;51.382;0.016;2022-08-03T02:16:58;17.60;99.90
31084;DHT22;36333;51.382;0.016;2022-08-03T02:19:27;17.70;99.90
31084;DHT22;36333;51.382;0.016;2022-08-03T02:22:04;17.70;99.90
31084;DHT22;36333;51.382;0.016;2022-08-03T02:24:32;17.80;99.90
31084;DHT22;36333;51.382;0.016;2022-08-03T02:27:00;17.80;99.90
31084;DHT22;36333;51.382;0.016;2022-08-03T02:29:33;17.90;99.90
31084;DHT22;36333;51.382;0.016;2022-08-03T02:32:13;18.00;99.90
31084;DHT22;36333;51.382;0.016;2022-08-03T02:34:47;18.10;99.90
31084;DHT22;36333;51.382;0.016;2022-08-03T02:37:18;18.10;99.90
31084;DHT22;36333;51.382;0.016;2022-08-03T02:39:47;18.20;99.90
31084;DHT22;36333;51.382;0.016;2022-08-03T02:42:17;18.20;99.90
31084;DHT22;36333;51.382;0.016;2022-08-03T02:44:49;18.30;99.90
31084;DHT22;36333;51.382;0.016;2022-08-03T02:47:18;18.30;99.90
31084;DHT22;36333;51.382;0.016;2022-08-03T02:49:48;18.30;99.90
31084;DHT22;36333;51.382;0.016;2022-08-03T02:52:20;18.40;99.90
31084;DHT22;36333;51.382;0.016;2022-08-03T02:54:52;18.60;99.90
31084;DHT22;36333;51.382;0.016;2022-08-03T02:57:22;18.40;99.90
31084;DHT22;36333;51.382;0.016;2022-08-03T02:59:51;18.50;99.90
31084;DHT22;36333;51.382;0.016;2022-08-03T03:02:20;18.50;99.90
31084;DHT22;36333;51.382;0.016;2022-08-03T03:04:50;18.50;99.90
31084;DHT22;36333;51.382;0.016;2022-08-03T03:07:39;18.50;99.90
31084;DHT22;36333;51.382;0.016;2022-08-03T03:10:22;18.50;99.90
31084;DHT22;36333;51.382;0.016;2022-08-03T03:12:54;18.50;99.90
31084;DHT22;36333;51.382;0.016;2022-08-03T03:15:26;18.60;99.90
31084;DHT22;36333;51.382;0.016;2022-08-03T03:17:54;18.60;99.90
31084;DHT22;36333;51.382;0.016;2022-08-03T03:20:23;18.60;99.90
31084;DHT22;36333;51.382;0.016;2022-08-03T03:23:00;18.60;99.90
31084;DHT22;36333;51.382;0.016;2022-08-03T03:25:30;18.60;99.90
31084;DHT22;36333;51.382;0.016;2022-08-03T03:27:59;18.60;99.90
31084;DHT22;36333;51.382;0.016;2022-08-03T03:30:29;18.60;99.90
31084;DHT22;36333;51.382;0.016;2022-08-03T03:32:57;18.60;99.90
31084;DHT22;36333;51.382;0.016;2022-08-03T03:35:26;18.70;99.90
31084;DHT22;36333;51.382;0.016;2022-08-03T03:37:54;18.70;99.90
31084;DHT22;36333;51.382;0.016;2022-08-03T03:40:23;18.70;99.90
31084;DHT22;36333;51.382;0.016;2022-08-03T03:42:51;18.70;99.90
31084;DHT22;36333;51.382;0.016;2022-08-03T03:45:19;18.70;99.90
31084;DHT22;36333;51.382;0.016;2022-08-03T03:47:48;18.70;99.90
31084;DHT22;36333;51.382;0.016;2022-08-03T03:50:16;18.70;99.90
31084;DHT22;36333;51.382;0.016;2022-08-03T03:52:44;18.70;99.90
31084;DHT22;36333;51.382;0.016;2022-08-03T03:55:15;18.70;99.90
31084;DHT22;36333;51.382;0.016;2022-08-03T03:57:43;18.70;99.90
31084;DHT22;36333;51.382;0.016;2022-08-03T04:00:12;18.70;99.90
31084;DHT22;36333;51.382;0.016;2022-08-03T04:02:40;18.50;99.90
31084;DHT22;36333;51.382;0.016;2022-08-03T04:05:08;18.70;99.90
31084;DHT22;36333;51.382;0.016;2022-08-03T04:08:11;18.60;99.90
31084;DHT22;36333;51.382;0.016;2022-08-03T04:11:16;18.70;99.90
31084;DHT22;36333;51.382;0.016;2022-08-03T04:14:21;18.70;99.90
31084;DHT22;36333;51.382;0.016;2022-08-03T04:17:06;18.60;99.90
31084;DHT22;36333;51.382;0.016;2022-08-03T04:19:45;18.60;99.90
31084;DHT22;36333;51.382;0.016;2022-08-03T04:22:17;18.60;99.90
31084;DHT22;36333;51.382;0.016;2022-08-03T04:24:48;18.60;99.90
31084;DHT22;36333;51.382;0.016;2022-08-03T04:27:22;18.60;99.90
31084;DHT22;36333;51.382;0.016;2022-08-03T04:29:52;18.60;99.90
31084;DHT22;36333;51.382;0.016;2022-08-03T04:32:22;18.70;99.90
31084;DHT22;36333;51.382;0.016;2022-08-03T04:34:51;18.70;99.90
31084;DHT22;36333;51.382;0.016;2022-08-03T04:37:33;18.70;99.90
31084;DHT22;36333;51.382;0.016;2022-08-03T04:40:04;18.70;99.90
31084;DHT22;36333;51.382;0.016;2022-08-03T04:42:33;18.80;99.90
31084;DHT22;36333;51.382;0.016;2022-08-03T04:45:03;18.80;99.90
31084;DHT22;36333;51.382;0.016;2022-08-03T04:47:32;18.80;99.90
31084;DHT22;36333;51.382;0.016;2022-08-03T04:50:02;18.90;99.90
31084;DHT22;36333;51.382;0.016;2022-08-03T04:52:30;18.80;99.90
31084;DHT22;36333;51.382;0.016;2022-08-03T04:54:58;18.90;99.90
31084;DHT22;36333;51.382;0.016;2022-08-03T04:57:25;18.90;99.90
31084;DHT22;36333;51.382;0.016;2022-08-03T04:59:54;18.90;99.90
31084;DHT22;36333;51.382;0.016;2022-08-03T05:02:30;18.90;99.90
31084;DHT22;36333;51.382;0.016;2022-08-03T05:04:58;18.90;99.90
31084;DHT22;36333;51.382;0.016;2022-08-03T05:07:26;18.90;99.90
31084;DHT22;36333;51.382;0.016;2022-08-03T05:10:07;19.00;99.90
31084;DHT22;36333;51.382;0.016;2022-08-03T05:12:46;19.00;99.90
31084;DHT22;36333;51.382;0.016;2022-08-03T05:15:14;19.00;99.90
31084;DHT22;36333;51.382;0.016;2022-08-03T05:17:42;19.00;99.90
31084;DHT22;36333;51.382;0.016;2022-08-03T05:20:10;19.10;99.90
31084;DHT22;36333;51.382;0.016;2022-08-03T05:22:38;19.10;99.90
31084;DHT22;36333;51.382;0.016;2022-08-03T05:25:06;19.10;99.90
31084;DHT22;36333;51.382;0.016;2022-08-03T05:27:34;19.10;99.90
31084;DHT22;36333;51.382;0.016;2022-08-03T05:30:05;19.20;99.90
31084;DHT22;36333;51.382;0.016;2022-08-03T05:32:53;19.40;99.90
31084;DHT22;36333;51.382;0.016;2022-08-03T05:35:20;19.20;99.90
31084;DHT22;36333;51.382;0.016;2022-08-03T05:38:08;19.30;99.90
31084;DHT22;36333;51.382;0.016;2022-08-03T05:40:36;19.30;99.90
31084;DHT22;36333;51.382;0.016;2022-08-03T05:43:05;19.40;99.90
31084;DHT22;36333;51.382;0.016;2022-08-03T05:45:33;19.40;99.90
31084;DHT22;36333;51.382;0.016;2022-08-03T05:48:04;19.40;99.90
31084;DHT22;36333;51.382;0.016;2022-08-03T05:50:32;19.50;99.90
31084;DHT22;36333;51.382;0.016;2022-08-03T05:52:59;19.60;99.90
31084;DHT22;36333;51.382;0.016;2022-08-03T05:55:27;19.60;99.90
31084;DHT22;36333;51.382;0.016;2022-08-03T05:57:55;19.70;99.90
31084;DHT22;36333;51.382;0.016;2022-08-03T06:00:23;19.80;99.90
31084;DHT22;36333;51.382;0.016;2022-08-03T06:02:52;19.90;99.90
31084;DHT22;36333;51.382;0.016;2022-08-03T06:05:22;19.90;99.90
31084;DHT22;36333;51.382;0.016;2022-08-03T06:07:49;20.00;99.90
31084;DHT22;36333;51.382;0.016;2022-08-03T06:10:17;20.10;99.90
31084;DHT22;36333;51.382;0.016;2022-08-03T06:13:04;20.10;99.90
31084;DHT22;36333;51.382;0.016;2022-08-03T06:15:32;20.20;99.90
31084;DHT22;36333;51.382;0.016;2022-08-03T06:18:01;20.30;99.90
31084;DHT22;36333;51.382;0.016;2022-08-03T06:20:29;20.40;99.90
31084;DHT22;36333;51.382;0.016;2022-08-03T06:22:57;20.50;99.90
31084;DHT22;36333;51.382;0.016;2022-08-03T06:25:28;20.40;99.90
31084;DHT22;36333;51.382;0.016;2022-08-03T06:27:58;20.60;99.90
31084;DHT22;36333;51.382;0.016;2022-08-03T06:30:26;20.70;99.90
31084;DHT22;36333;51.382;0.016;2022-08-03T06:32:54;20.70;99.90
31084;DHT22;36333;51.382;0.016;2022-08-03T06:35:21;20.70;99.90
31084;DHT22;36333;51.382;0.016;2022-08-03T06:37:51;20.80;99.90
31084;DHT22;36333;51.382;0.016;2022-08-03T06:40:23;20.90;99.90
31084;DHT22;36333;51.382;0.016;2022-08-03T06:42:59;20.90;99.90
31084;DHT22;36333;51.382;0.016;2022-08-03T06:45:28;20.90;99.90
31084;DHT22;36333;51.382;0.016;2022-08-03T06:48:03;20.90;99.90
31084;DHT22;36333;51.382;0.016;2022-08-03T06:50:33;21.00;99.90
31084;DHT22;36333;51.382;0.016;2022-08-03T06:53:03;21.00;99.90
31084;DHT22;36333;51.382;0.016;2022-08-03T06:55:31;21.00;99.90
31084;DHT22;36333;51.382;0.016;2022-08-03T06:57:59;21.10;99.90
31084;DHT22;36333;51.382;0.016;2022-08-03T07:00:29;21.10;99.80
31084;DHT22;36333;51.382;0.016;2022-08-03T07:02:57;21.10;99.70
31084;DHT22;36333;51.382;0.016;2022-08-03T07:05:25;21.10;99.60
31084;DHT22;36333;51.382;0.016;2022-08-03T07:07:56;21.20;99.90
31084;DHT22;36333;51.382;0.016;2022-08-03T07:10:25;21.20;99.20
31084;DHT22;36333;51.382;0.016;2022-08-03T07:12:54;21.30;99.20
31084;DHT22;36333;51.382;0.016;2022-08-03T07:15:24;22.40;99.40
31084;DHT22;36333;51.382;0.016;2022-08-03T07:18:12;21.40;98.80
31084;DHT22;36333;51.382;0.016;2022-08-03T07:20:40;21.40;99.00
31084;DHT22;36333;51.382;0.016;2022-08-03T07:23:10;21.50;98.80
31084;DHT22;36333;51.382;0.016;2022-08-03T07:25:45;21.50;98.50
31084;DHT22;36333;51.382;0.016;2022-08-03T07:28:16;21.60;98.20
31084;DHT22;36333;51.382;0.016;2022-08-03T07:30:44;21.50;98.30
31084;DHT22;36333;51.382;0.016;2022-08-03T07:33:12;21.60;98.40
31084;DHT22;36333;51.382;0.016;2022-08-03T07:35:47;21.60;98.10
31084;DHT22;36333;51.382;0.016;2022-08-03T07:38:15;21.80;98.20
31084;DHT22;36333;51.382;0.016;2022-08-03T07:40:42;21.90;97.40
31084;DHT22;36333;51.382;0.016;2022-08-03T07:43:12;22.00;97.40
31084;DHT22;36333;51.382;0.016;2022-08-03T07:45:43;22.10;97.10
31084;DHT22;36333;51.382;0.016;2022-08-03T07:48:12;22.20;96.80
31084;DHT22;36333;51.382;0.016;2022-08-03T07:50:40;22.20;96.80
31084;DHT22;36333;51.382;0.016;2022-08-03T07:53:07;22.40;96.50
31084;DHT22;36333;51.382;0.016;2022-08-03T07:55:35;22.40;96.50
31084;DHT22;36333;51.382;0.016;2022-08-03T07:58:07;22.30;96.20
31084;DHT22;36333;51.382;0.016;2022-08-03T08:00:51;22.30;96.30
31084;DHT22;36333;51.382;0.016;2022-08-03T08:03:20;22.30;96.30
31084;DHT22;36333;51.382;0.016;2022-08-03T08:05:50;22.30;96.20
31084;DHT22;36333;51.382;0.016;2022-08-03T08:08:17;22.40;96.10
31084;DHT22;36333;51.382;0.016;2022-08-03T08:10:46;22.60;95.90
31084;DHT22;36333;51.382;0.016;2022-08-03T08:13:25;22.70;95.90
31084;DHT22;36333;51.382;0.016;2022-08-03T08:15:52;22.90;95.10
31084;DHT22;36333;51.382;0.016;2022-08-03T08:18:20;22.90;94.70
31084;DHT22;36333;51.382;0.016;2022-08-03T08:20:48;22.90;94.70
31084;DHT22;36333;51.382;0.016;2022-08-03T08:23:16;23.00;94.60
31084;DHT22;36333;51.382;0.016;2022-08-03T08:26:09;23.20;94.30
31084;DHT22;36333;51.382;0.016;2022-08-03T08:28:37;23.20;93.60
31084;DHT22;36333;51.382;0.016;2022-08-03T08:31:04;23.20;93.70
31084;DHT22;36333;51.382;0.016;2022-08-03T08:33:32;23.30;94.00
31084;DHT22;36333;51.382;0.016;2022-08-03T08:36:21;23.40;93.80
31084;DHT22;36333;51.382;0.016;2022-08-03T08:38:49;23.50;93.70
31084;DHT22;36333;51.382;0.016;2022-08-03T08:41:16;23.60;93.50
31084;DHT22;36333;51.382;0.016;2022-08-03T08:43:44;23.70;93.20
31084;DHT22;36333;51.382;0.016;2022-08-03T08:46:12;23.80;92.90
31084;DHT22;36333;51.382;0.016;2022-08-03T08:48:51;23.90;92.70
31084;DHT22;36333;51.382;0.016;2022-08-03T08:51:21;23.80;92.50
31084;DHT22;36333;51.382;0.016;2022-08-03T08:53:51;23.70;92.50
31084;DHT22;36333;51.382;0.016;2022-08-03T08:56:22;23.70;92.70
31084;DHT22;36333;51.382;0.016;2022-08-03T08:58:55;23.70;92.70
31084;DHT22;36333;51.382;0.016;2022-08-03T09:01:24;23.60;92.60
31084;DHT22;36333;51.382;0.016;2022-08-03T09:03:53;23.50;92.60
31084;DHT22;36333;51.382;0.016;2022-08-03T09:06:21;23.20;92.80
31084;DHT22;36333;51.382;0.016;2022-08-03T09:08:49;23.10;93.10
31084;DHT22;36333;51.382;0.016;2022-08-03T09:11:20;23.20;93.30
31084;DHT22;36333;51.382;0.016;2022-08-03T09:14:10;23.30;93.30
31084;DHT22;36333;51.382;0.016;2022-08-03T09:16:59;23.50;93.10
31084;DHT22;36333;51.382;0.016;2022-08-03T09:19:29;23.70;92.80
31084;DHT22;36333;51.382;0.016;2022-08-03T09:22:16;23.70;92.60
31084;DHT22;36333;51.382;0.016;2022-08-03T09:24:59;23.60;92.40
31084;DHT22;36333;51.382;0.016;2022-08-03T09:27:47;23.70;92.70
31084;DHT22;36333;51.382;0.016;2022-08-03T09:30:16;23.80;92.60
31084;DHT22;36333;51.382;0.016;2022-08-03T09:33:06;23.90;92.40
31084;DHT22;36333;51.382;0.016;2022-08-03T09:35:43;24.00;91.90
31084;DHT22;36333;51.382;0.016;2022-08-03T09:38:26;23.90;92.20
31084;DHT22;36333;51.382;0.016;2022-08-03T09:40:55;23.90;92.40
31084;DHT22;36333;51.382;0.016;2022-08-03T09:43:27;23.80;92.30
31084;DHT22;36333;51.382;0.016;2022-08-03T09:46:03;23.90;92.30
31084;DHT22;36333;51.382;0.016;2022-08-03T09:48:31;24.10;92.00
31084;DHT22;36333;51.382;0.016;2022-08-03T09:51:04;24.20;92.00
31084;DHT22;36333;51.382;0.016;2022-08-03T09:53:51;24.40;91.70
31084;DHT22;36333;51.382;0.016;2022-08-03T09:56:45;24.40;91.50
31084;DHT22;36333;51.382;0.016;2022-08-03T09:59:27;24.70;90.70
31084;DHT22;36333;51.382;0.016;2022-08-03T10:01:56;24.90;90.50
31084;DHT22;36333;51.382;0.016;2022-08-03T10:04:25;25.00;90.50
31084;DHT22;36333;51.382;0.016;2022-08-03T10:07:08;25.00;90.00
31084;DHT22;36333;51.382;0.016;2022-08-03T10:09:52;25.10;89.80
31084;DHT22;36333;51.382;0.016;2022-08-03T10:12:21;25.20;89.00
31084;DHT22;36333;51.382;0.016;2022-08-03T10:14:52;25.20;90.00
31084;DHT22;36333;51.382;0.016;2022-08-03T10:17:21;25.40;89.90
31084;DHT22;36333;51.382;0.016;2022-08-03T10:19:49;25.40;89.20
31084;DHT22;36333;51.382;0.016;2022-08-03T10:22:28;25.40;89.20
31084;DHT22;36333;51.382;0.016;2022-08-03T10:25:10;25.40;89.40
31084;DHT22;36333;51.382;0.016;2022-08-03T10:27:41;25.40;88.60
31084;DHT22;36333;51.382;0.016;2022-08-03T10:30:10;25.40;89.20
31084;DHT22;36333;51.382;0.016;2022-08-03T10:32:47;25.40;88.50
31084;DHT22;36333;51.382;0.016;2022-08-03T10:35:17;25.40;88.80
31084;DHT22;36333;51.382;0.016;2022-08-03T10:38:01;25.40;88.70
31084;DHT22;36333;51.382;0.016;2022-08-03T10:40:33;25.30;88.30
31084;DHT22;36333;51.382;0.016;2022-08-03T10:43:26;25.40;88.70
31084;DHT22;36333;51.382;0.016;2022-08-03T10:45:55;25.60;88.40
31084;DHT22;36333;51.382;0.016;2022-08-03T10:48:23;25.90;87.70
31084;DHT22;36333;51.382;0.016;2022-08-03T10:50:51;26.20;87.00
31084;DHT22;36333;51.382;0.016;2022-08-03T10:53:39;26.40;86.50
31084;DHT22;36333;51.382;0.016;2022-08-03T11:02:14;26.50;84.80
31084;DHT22;36333;51.382;0.016;2022-08-03T11:04:42;26.20;85.60
31084;DHT22;36333;51.382;0.016;2022-08-03T11:09:47;26.10;87.00
31084;DHT22;36333;51.382;0.016;2022-08-03T11:12:30;25.50;87.40
31084;DHT22;36333;51.382;0.016;2022-08-03T11:15:05;25.40;87.60
31084;DHT22;36333;51.382;0.016;2022-08-03T11:17:35;25.40;87.70
31084;DHT22;36333;51.382;0.016;2022-08-03T11:20:45;25.30;87.90
31084;DHT22;36333;51.382;0.016;2022-08-03T11:23:40;25.40;87.60
31084;DHT22;36333;51.382;0.016;2022-08-03T11:26:30;25.50;87.30
31084;DHT22;36333;51.382;0.016;2022-08-03T11:29:38;25.50;87.60
31084;DHT22;36333;51.382;0.016;2022-08-03T11:35:20;25.70;87.10
31084;DHT22;36333;51.382;0.016;2022-08-03T11:40:48;25.80;86.70
31084;DHT22;36333;51.382;0.016;2022-08-03T11:43:53;25.80;86.70
31084;DHT22;36333;51.382;0.016;2022-08-03T11:46:37;25.80;87.70
31084;DHT22;36333;51.382;0.016;2022-08-03T11:49:05;25.90;86.20
31084;DHT22;36333;51.382;0.016;2022-08-03T11:51:38;26.00;86.40
31084;DHT22;36333;51.382;0.016;2022-08-03T11:54:08;26.10;85.80
31084;DHT22;36333;51.382;0.016;2022-08-03T11:56:55;25.40;85.30
31084;DHT22;36333;51.382;0.016;2022-08-03T11:59:59;26.30;85.20
31084;DHT22;36333;51.382;0.016;2022-08-03T12:02:27;26.30;85.50
31084;DHT22;36333;51.382;0.016;2022-08-03T12:04:57;26.40;85.20
31084;DHT22;36333;51.382;0.016;2022-08-03T12:07:27;26.50;84.90
31084;DHT22;36333;51.382;0.016;2022-08-03T12:10:18;26.70;84.90
31084;DHT22;36333;51.382;0.016;2022-08-03T12:12:54;26.80;84.00
31084;DHT22;36333;51.382;0.016;2022-08-03T12:15:35;26.80;83.20
31084;DHT22;36333;51.382;0.016;2022-08-03T12:18:17;27.00;83.60
31084;DHT22;36333;51.382;0.016;2022-08-03T12:20:49;27.00;83.00
31084;DHT22;36333;51.382;0.016;2022-08-03T12:23:18;27.00;83.40
31084;DHT22;36333;51.382;0.016;2022-08-03T12:25:46;27.00;83.60
31084;DHT22;36333;51.382;0.016;2022-08-03T12:28:20;27.10;82.60
31084;DHT22;36333;51.382;0.016;2022-08-03T12:31:09;27.20;82.80
31084;DHT22;36333;51.382;0.016;2022-08-03T12:34:00;27.40;81.70
31084;DHT22;36333;51.382;0.016;2022-08-03T12:36:34;27.50;81.20
31084;DHT22;36333;51.382;0.016;2022-08-03T12:39:08;27.80;81.60
31084;DHT22;36333;51.382;0.016;2022-08-03T12:41:38;28.00;80.90
31084;DHT22;36333;51.382;0.016;2022-08-03T12:44:09;28.00;80.40
31084;DHT22;36333;51.382;0.016;2022-08-03T12:46:40;28.00;79.80
31084;DHT22;36333;51.382;0.016;2022-08-03T12:49:15;27.90;80.20
31084;DHT22;36333;51.382;0.016;2022-08-03T12:54:20;27.80;78.40
31084;DHT22;36333;51.382;0.016;2022-08-03T12:56:58;27.70;79.10
31084;DHT22;36333;51.382;0.016;2022-08-03T12:59:34;28.30;79.80
31084;DHT22;36333;51.382;0.016;2022-08-03T13:02:15;27.80;78.70
31084;DHT22;36333;51.382;0.016;2022-08-03T13:04:44;27.80;78.20
31084;DHT22;36333;51.382;0.016;2022-08-03T13:07:13;28.00;78.40
31084;DHT22;36333;51.382;0.016;2022-08-03T13:14:42;28.20;76.50
31084;DHT22;36333;51.382;0.016;2022-08-03T13:17:10;28.30;77.10
31084;DHT22;36333;51.382;0.016;2022-08-03T13:19:39;28.40;77.10
31084;DHT22;36333;51.382;0.016;2022-08-03T13:22:26;28.40;76.40
31084;DHT22;36333;51.382;0.016;2022-08-03T13:24:57;28.40;75.40
31084;DHT22;36333;51.382;0.016;2022-08-03T13:27:27;28.40;76.10
31084;DHT22;36333;51.382;0.016;2022-08-03T13:30:15;28.40;76.30
31084;DHT22;36333;51.382;0.016;2022-08-03T13:32:57;28.40;75.10
31084;DHT22;36333;51.382;0.016;2022-08-03T13:35:26;28.30;74.90
31084;DHT22;36333;51.382;0.016;2022-08-03T13:37:53;28.30;75.50
31084;DHT22;36333;51.382;0.016;2022-08-03T13:40:21;28.30;74.80
31084;DHT22;36333;51.382;0.016;2022-08-03T13:42:50;28.40;74.80
31084;DHT22;36333;51.382;0.016;2022-08-03T13:45:17;28.50;74.30
31084;DHT22;36333;51.382;0.016;2022-08-03T13:47:45;28.80;74.40
31084;DHT22;36333;51.382;0.016;2022-08-03T13:50:13;29.30;73.60
31084;DHT22;36333;51.382;0.016;2022-08-03T13:52:42;29.80;72.40
31084;DHT22;36333;51.382;0.016;2022-08-03T13:55:12;30.30;71.40
31084;DHT22;36333;51.382;0.016;2022-08-03T13:57:40;31.40;70.40
31084;DHT22;36333;51.382;0.016;2022-08-03T14:00:27;32.20;67.00
31084;DHT22;36333;51.382;0.016;2022-08-03T14:02:57;32.90;63.70
31084;DHT22;36333;51.382;0.016;2022-08-03T14:05:36;33.50;65.60
31084;DHT22;36333;51.382;0.016;2022-08-03T14:08:05;34.30;64.00
31084;DHT22;36333;51.382;0.016;2022-08-03T14:10:39;34.90;62.90
31084;DHT22;36333;51.382;0.016;2022-08-03T14:13:07;35.40;60.70
31084;DHT22;36333;51.382;0.016;2022-08-03T14:15:35;35.90;61.50
31084;DHT22;36333;51.382;0.016;2022-08-03T14:18:06;36.30;60.20
31084;DHT22;36333;51.382;0.016;2022-08-03T14:20:43;36.60;59.70
31084;DHT22;36333;51.382;0.016;2022-08-03T14:23:20;36.80;58.90
31084;DHT22;36333;51.382;0.016;2022-08-03T14:25:48;37.10;58.30
31084;DHT22;36333;51.382;0.016;2022-08-03T14:28:21;37.10;56.40
31084;DHT22;36333;51.382;0.016;2022-08-03T14:30:50;37.20;57.80
31084;DHT22;36333;51.382;0.016;2022-08-03T14:33:19;37.20;57.10
31084;DHT22;36333;51.382;0.016;2022-08-03T14:35:47;37.30;57.20
31084;DHT22;36333;51.382;0.016;2022-08-03T14:38:15;37.70;56.80
31084;DHT22;36333;51.382;0.016;2022-08-03T14:40:43;38.00;56.40
31084;DHT22;36333;51.382;0.016;2022-08-03T14:43:14;38.30;55.40
31084;DHT22;36333;51.382;0.016;2022-08-03T14:45:44;38.20;55.30
31084;DHT22;36333;51.382;0.016;2022-08-03T14:48:12;38.40;55.70
31084;DHT22;36333;51.382;0.016;2022-08-03T14:51:00;38.70;54.60
31084;DHT22;36333;51.382;0.016;2022-08-03T14:53:27;39.20;54.80
31084;DHT22;36333;51.382;0.016;2022-08-03T14:55:56;39.20;53.90
31084;DHT22;36333;51.382;0.016;2022-08-03T14:58:24;39.20;53.80
31084;DHT22;36333;51.382;0.016;2022-08-03T15:00:53;39.20;53.70
31084;DHT22;36333;51.382;0.016;2022-08-03T15:03:22;38.80;53.50
31084;DHT22;36333;51.382;0.016;2022-08-03T15:05:52;38.50;54.20
31084;DHT22;36333;51.382;0.016;2022-08-03T15:08:21;37.90;54.70
31084;DHT22;36333;51.382;0.016;2022-08-03T15:10:49;37.20;55.30
31084;DHT22;36333;51.382;0.016;2022-08-03T15:13:18;36.60;56.20
31084;DHT22;36333;51.382;0.016;2022-08-03T15:15:46;36.70;56.50
31084;DHT22;36333;51.382;0.016;2022-08-03T15:18:14;37.40;55.60
31084;DHT22;36333;51.382;0.016;2022-08-03T15:20:42;37.60;55.50
31084;DHT22;36333;51.382;0.016;2022-08-03T15:23:13;37.70;55.20
31084;DHT22;36333;51.382;0.016;2022-08-03T15:25:42;37.80;54.90
31084;DHT22;36333;51.382;0.016;2022-08-03T15:28:31;38.00;55.30
31084;DHT22;36333;51.382;0.016;2022-08-03T15:30:59;38.40;54.90
31084;DHT22;36333;51.382;0.016;2022-08-03T15:33:27;38.50;54.60
31084;DHT22;36333;51.382;0.016;2022-08-03T15:35:55;38.50;54.50
31084;DHT22;36333;51.382;0.016;2022-08-03T15:38:23;38.40;54.50
31084;DHT22;36333;51.382;0.016;2022-08-03T15:40:53;38.30;54.70
31084;DHT22;36333;51.382;0.016;2022-08-03T15:43:22;37.60;55.10
31084;DHT22;36333;51.382;0.016;2022-08-03T15:45:50;36.50;56.00
31084;DHT22;36333;51.382;0.016;2022-08-03T15:48:39;36.10;57.00
31084;DHT22;36333;51.382;0.016;2022-08-03T15:51:08;35.60;57.60
31084;DHT22;36333;51.382;0.016;2022-08-03T15:53:38;35.10;58.40
31084;DHT22;36333;51.382;0.016;2022-08-03T15:56:06;35.50;58.40
31084;DHT22;36333;51.382;0.016;2022-08-03T15:58:44;36.10;57.80
31084;DHT22;36333;51.382;0.016;2022-08-03T16:01:33;36.00;57.40
31084;DHT22;36333;51.382;0.016;2022-08-03T16:04:01;35.70;58.00
31084;DHT22;36333;51.382;0.016;2022-08-03T16:06:28;35.60;58.00
31084;DHT22;36333;51.382;0.016;2022-08-03T16:09:06;34.90;58.40
31084;DHT22;36333;51.382;0.016;2022-08-03T16:11:50;34.70;59.50
31084;DHT22;36333;51.382;0.016;2022-08-03T16:14:18;35.00;59.30
31084;DHT22;36333;51.382;0.016;2022-08-03T16:17:02;35.70;58.60
31084;DHT22;36333;51.382;0.016;2022-08-03T16:19:30;35.70;58.20
31084;DHT22;36333;51.382;0.016;2022-08-03T16:21:58;36.10;58.20
31084;DHT22;36333;51.382;0.016;2022-08-03T16:24:27;36.60;57.20
31084;DHT22;36333;51.382;0.016;2022-08-03T16:26:55;37.10;57.00
31084;DHT22;36333;51.382;0.016;2022-08-03T16:29:23;36.70;56.80
31084;DHT22;36333;51.382;0.016;2022-08-03T16:31:51;35.90;57.50
31084;DHT22;36333;51.382;0.016;2022-08-03T16:34:20;34.80;58.70
31084;DHT22;36333;51.382;0.016;2022-08-03T16:36:48;33.90;59.90
31084;DHT22;36333;51.382;0.016;2022-08-03T16:39:15;33.10;61.10
31084;DHT22;36333;51.382;0.016;2022-08-03T16:41:43;32.40;62.30
31084;DHT22;36333;51.382;0.016;2022-08-03T16:44:28;31.90;63.40